Time;durP1;ratioP1;P1;durP2;ratioP2;P2;SDS_P1;SDS_P2;PMS_P1;PMS_P2;Temp;Humidity;BMP_temperature;BMP_pressure;BME280_temperature;BME280_humidity;BME280_pressure;Samples;Min_cycle;Max_cycle;Signal;HPM_P1;HPM_P2
2022/07/04 00:00:17;;;;;;;7.22;2.20;;;18.30;99.90;;;;;;5015933;28;20046;-55
2022/07/04 00:02:46;;;;;;;2.28;1.75;;;18.30;99.90;;;;;;5016186;28;20045;-56
2022/07/04 00:05:13;;;;;;;3.38;1.90;;;18.20;99.90;;;;;;5015278;28;20603;-55
2022/07/04 00:07:42;;;;;;;2.85;2.03;;;18.20;99.90;;;;;;5015196;28;20057;-55
2022/07/04 00:10:11;;;;;;;2.33;1.80;;;18.20;99.90;;;;;;5015037;28;20060;-54
2022/07/04 00:12:37;;;;;;;2.25;1.60;;;18.20;99.90;;;;;;5016011;28;20702;-55
2022/07/04 00:15:06;;;;;;;3.53;2.08;;;18.10;99.90;;;;;;5016129;28;20099;-57
2022/07/04 00:17:33;;;;;;;6.40;2.30;;;18.00;99.90;;;;;;5016136;28;20538;-57
2022/07/04 00:20:00;;;;;;;4.45;2.03;;;18.00;99.90;;;;;;5016394;28;20045;-57
2022/07/04 00:22:27;;;;;;;3.97;1.92;;;18.00;99.90;;;;;;5015796;28;20037;-57
2022/07/04 00:24:54;;;;;;;5.22;1.80;;;18.00;99.90;;;;;;5016270;28;20045;-55
2022/07/04 00:27:20;;;;;;;3.45;1.60;;;18.00;99.90;;;;;;5015175;28;20037;-56
2022/07/04 00:29:47;;;;;;;;;;;18.00;99.90;;;;;;5014087;28;20431;-56
2022/07/04 00:32:14;;;;;;;1.42;1.33;;;17.90;99.90;;;;;;5016150;28;19982;-54
2022/07/04 00:34:41;;;;;;;1.60;1.42;;;17.90;99.90;;;;;;5015505;28;20041;-55
2022/07/04 00:37:08;;;;;;;2.50;1.55;;;17.90;99.90;;;;;;5016075;28;20053;-55
2022/07/04 00:39:35;;;;;;;1.95;1.80;;;17.90;99.90;;;;;;5015279;28;20630;-52
2022/07/04 00:42:07;;;;;;;2.92;1.80;;;17.90;99.90;;;;;;5014074;28;20609;-55
2022/07/04 00:44:36;;;;;;;2.03;1.83;;;17.90;99.90;;;;;;5014808;28;20060;-56
2022/07/04 00:47:04;;;;;;;3.08;1.80;;;17.80;99.90;;;;;;5016488;28;20052;-53
2022/07/04 00:49:32;;;;;;;1.90;1.70;;;17.80;99.90;;;;;;5014771;28;20044;-56
2022/07/04 00:52:00;;;;;;;9.38;1.73;;;17.70;99.90;;;;;;5015784;28;20077;-55
2022/07/04 00:54:29;;;;;;;3.10;1.92;;;17.70;99.90;;;;;;5015686;28;20049;-55
2022/07/04 00:56:56;;;;;;;1.95;1.75;;;17.60;99.90;;;;;;5015541;28;20055;-54
2022/07/04 00:59:23;;;;;;;3.75;1.77;;;17.60;99.90;;;;;;5015265;28;20354;-55
2022/07/04 01:01:51;;;;;;;2.55;1.35;;;17.50;99.90;;;;;;5015313;28;20717;-53
2022/07/04 01:04:18;;;;;;;3.10;1.60;;;17.50;99.90;;;;;;5015369;28;20048;-54
2022/07/04 01:06:45;;;;;;;1.40;1.30;;;17.50;99.90;;;;;;5011377;28;20045;-55
2022/07/04 01:09:12;;;;;;;2.20;1.83;;;17.50;99.90;;;;;;4997514;28;20042;-55
2022/07/04 01:11:39;;;;;;;2.17;1.92;;;17.40;99.90;;;;;;4995518;28;20046;-55
2022/07/04 01:14:06;;;;;;;3.75;1.95;;;17.40;99.90;;;;;;4995221;28;20116;-56
2022/07/04 01:16:33;;;;;;;5.22;2.13;;;17.40;99.90;;;;;;4995372;28;20053;-56
2022/07/04 01:19:00;;;;;;;4.63;2.00;;;17.40;99.90;;;;;;5012152;28;20135;-55
2022/07/04 01:21:27;;;;;;;4.53;1.80;;;17.40;99.90;;;;;;5015481;28;20046;-54
2022/07/04 01:23:54;;;;;;;1.77;1.38;;;17.40;99.90;;;;;;5014911;28;20049;-56
2022/07/04 01:26:22;;;;;;;;;;;17.50;99.90;;;;;;5015134;28;20037;-56
2022/07/04 01:28:49;;;;;;;4.10;1.30;;;17.40;99.90;;;;;;5013686;28;19936;-54
2022/07/04 01:31:15;;;;;;;;;;;17.50;99.90;;;;;;5015624;28;20045;-55
2022/07/04 01:33:42;;;;;;;2.00;1.45;;;17.50;99.90;;;;;;5014377;28;19925;-51
2022/07/04 01:36:09;;;;;;;;;;;17.50;99.90;;;;;;5015378;28;20049;-55
2022/07/04 01:38:36;;;;;;;1.65;1.50;;;17.40;99.90;;;;;;5014276;28;20411;-56
2022/07/04 01:41:02;;;;;;;1.40;1.30;;;17.40;99.90;;;;;;5013210;28;20045;-54
2022/07/04 01:43:29;;;;;;;;;;;17.40;99.90;;;;;;5014401;28;20045;-55
2022/07/04 01:45:56;;;;;;;2.42;1.70;;;17.30;99.90;;;;;;5014792;28;20007;-55
2022/07/04 01:48:23;;;;;;;1.80;1.40;;;17.30;99.90;;;;;;5012979;28;20144;-53
2022/07/04 01:50:49;;;;;;;;;;;17.30;99.90;;;;;;5014875;28;20458;-54
2022/07/04 01:53:16;;;;;;;4.43;1.65;;;17.30;99.90;;;;;;5014755;28;19925;-55
2022/07/04 01:55:43;;;;;;;2.33;1.52;;;17.30;99.90;;;;;;5014379;28;20041;-57
2022/07/04 01:58:10;;;;;;;;;;;17.20;99.90;;;;;;5014957;28;20107;-56
2022/07/04 02:03:22;;;;;;;2.33;1.80;;;17.20;99.90;;;;;;5014162;28;20056;-55
2022/07/04 02:05:49;;;;;;;1.88;1.52;;;17.20;99.90;;;;;;5014347;28;20045;-59
2022/07/04 02:08:16;;;;;;;1.58;1.48;;;17.20;99.90;;;;;;5012253;28;20041;-56
2022/07/04 02:10:42;;;;;;;;;;;17.20;99.90;;;;;;5014775;28;20126;-55
2022/07/04 02:13:09;;;;;;;3.80;1.98;;;17.20;99.90;;;;;;5013728;28;19952;-56
2022/07/04 02:15:37;;;;;;;;;;;17.20;99.90;;;;;;5013747;28;20057;-57
2022/07/04 02:18:05;;;;;;;;;;;17.20;99.90;;;;;;5014714;28;20390;-56
2022/07/04 02:20:33;;;;;;;3.28;1.92;;;17.20;99.90;;;;;;5014429;28;19925;-56
2022/07/04 02:23:01;;;;;;;2.78;1.98;;;17.20;99.90;;;;;;5014322;28;20045;-58
2022/07/04 02:25:28;;;;;;;2.25;1.80;;;17.20;99.90;;;;;;5012726;28;20068;-57
2022/07/04 02:27:55;;;;;;;1.75;1.65;;;17.20;99.90;;;;;;5013930;28;20045;-56
2022/07/04 02:30:23;;;;;;;2.25;2.00;;;17.30;99.90;;;;;;5012394;28;20045;-57
2022/07/04 02:32:50;;;;;;;3.30;2.22;;;17.30;99.90;;;;;;5014014;28;20040;-54
2022/07/04 02:35:17;;;;;;;6.25;2.10;;;17.30;99.90;;;;;;5013789;28;20550;-56
2022/07/04 02:37:44;;;;;;;2.72;1.90;;;17.20;99.90;;;;;;5014568;28;20598;-54
2022/07/04 02:40:11;;;;;;;;;;;17.20;99.90;;;;;;5014114;28;20052;-55
2022/07/04 02:42:38;;;;;;;2.73;2.20;;;17.20;99.90;;;;;;5013809;28;19924;-55
2022/07/04 02:45:05;;;;;;;;;;;17.20;99.90;;;;;;5014517;28;20037;-56
2022/07/04 02:47:32;;;;;;;2.55;2.35;;;17.20;99.90;;;;;;5014468;28;19931;-55
2022/07/04 02:50:01;;;;;;;2.10;1.90;;;17.30;99.90;;;;;;5013714;28;20507;-55
2022/07/04 02:52:29;;;;;;;3.33;2.15;;;17.30;99.90;;;;;;5014263;28;20044;-57
2022/07/04 02:54:56;;;;;;;5.45;2.08;;;17.30;99.90;;;;;;5018047;28;20049;-55
2022/07/04 02:57:23;;;;;;;;;;;17.30;99.90;;;;;;5018313;28;20715;-55
2022/07/04 02:59:50;;;;;;;3.83;3.05;;;17.30;99.90;;;;;;5017834;28;19936;-55
2022/07/04 03:02:16;;;;;;;6.07;2.85;;;17.40;99.90;;;;;;5001028;28;20099;-56
2022/07/04 03:04:43;;;;;;;3.58;2.92;;;17.40;99.90;;;;;;5017052;28;20046;-56
2022/07/04 03:07:11;;;;;;;8.65;3.47;;;17.40;99.90;;;;;;5017055;28;20397;-55
2022/07/04 03:09:37;;;;;;;3.65;3.22;;;17.50;99.90;;;;;;5015507;28;20033;-55
2022/07/04 03:12:05;;;;;;;2.90;2.60;;;17.50;99.90;;;;;;5017402;28;20076;-56
2022/07/04 03:14:32;;;;;;;2.75;2.55;;;17.50;99.90;;;;;;5015869;28;20627;-58
2022/07/04 03:16:59;;;;;;;;;;;17.50;99.90;;;;;;5018333;28;20060;-55
2022/07/04 03:19:26;;;;;;;4.13;3.13;;;17.50;99.90;;;;;;5015714;28;19952;-57
2022/07/04 03:21:52;;;;;;;5.05;2.42;;;17.50;99.90;;;;;;5017437;28;20100;-58
2022/07/04 03:24:19;;;;;;;;;;;17.50;99.90;;;;;;5017170;28;20675;-56
2022/07/04 03:26:46;;;;;;;4.28;2.78;;;17.50;99.90;;;;;;5015890;28;19925;-54
2022/07/04 03:29:13;;;;;;;;;;;17.50;99.90;;;;;;5017152;28;20046;-55
2022/07/04 03:31:39;;;;;;;6.85;2.58;;;17.50;99.90;;;;;;5017770;28;19931;-55
2022/07/04 03:34:06;;;;;;;5.00;2.33;;;17.40;99.90;;;;;;5016528;28;20046;-55
2022/07/04 03:36:33;;;;;;;5.07;2.78;;;17.40;99.90;;;;;;5017799;28;20122;-56
2022/07/04 03:39:00;;;;;;;2.28;2.13;;;17.30;99.90;;;;;;5017210;28;20049;-57
2022/07/04 03:41:27;;;;;;;2.88;2.42;;;17.30;99.90;;;;;;5015436;28;20737;-56
2022/07/04 03:43:54;;;;;;;6.55;2.30;;;17.30;99.90;;;;;;5014636;28;20529;-56
2022/07/04 03:46:21;;;;;;;2.63;2.30;;;17.30;99.90;;;;;;5016719;28;20065;-56
2022/07/04 03:48:48;;;;;;;2.58;2.00;;;17.20;99.90;;;;;;5016237;28;20037;-55
2022/07/04 03:51:14;;;;;;;3.53;2.15;;;17.20;99.90;;;;;;5016675;28;20046;-55
2022/07/04 03:53:42;;;;;;;3.05;2.42;;;17.20;99.90;;;;;;5016662;28;20042;-54
2022/07/04 03:56:09;;;;;;;5.72;2.30;;;17.20;99.90;;;;;;5016211;28;20050;-55
2022/07/04 03:58:36;;;;;;;3.22;1.70;;;17.10;99.90;;;;;;5016561;28;20518;-56
2022/07/04 04:01:03;;;;;;;3.45;2.35;;;17.10;99.90;;;;;;5015933;28;20049;-54
2022/07/04 04:06:16;;;;;;;2.42;2.22;;;17.10;99.90;;;;;;5015921;28;20056;-55
2022/07/04 04:08:42;;;;;;;4.05;2.30;;;17.00;99.90;;;;;;5015564;28;20100;-53
2022/07/04 04:11:09;;;;;;;5.68;2.28;;;17.00;99.90;;;;;;5014994;28;20042;-56
2022/07/04 04:13:36;;;;;;;3.45;2.38;;;17.00;99.90;;;;;;5015825;28;20061;-55
2022/07/04 04:16:03;;;;;;;3.35;2.47;;;17.00;99.90;;;;;;5016417;28;20177;-55
2022/07/04 04:18:31;;;;;;;3.35;2.45;;;16.90;99.90;;;;;;5013928;28;20049;-53
2022/07/04 04:20:58;;;;;;;4.30;2.60;;;16.90;99.90;;;;;;5016637;28;20125;-54
2022/07/04 04:23:25;;;;;;;8.35;2.78;;;16.90;99.90;;;;;;5016016;28;20045;-55
2022/07/04 04:25:52;;;;;;;11.15;3.00;;;16.80;99.90;;;;;;5014692;28;20045;-55
2022/07/04 04:28:22;;;;;;;3.75;2.50;;;16.80;99.90;;;;;;5014582;28;20048;-54
2022/07/04 04:30:52;;;;;;;5.53;2.78;;;16.80;99.90;;;;;;5015737;28;20707;-55
2022/07/04 04:33:19;;;;;;;4.25;2.50;;;16.80;99.90;;;;;;5015732;28;20647;-53
2022/07/04 04:35:45;;;;;;;4.78;2.50;;;16.80;99.90;;;;;;5015524;28;20041;-51
2022/07/04 04:38:12;;;;;;;8.65;3.20;;;16.80;99.90;;;;;;5016158;28;20051;-50
2022/07/04 04:40:39;;;;;;;4.93;2.83;;;16.90;99.90;;;;;;5015236;28;20053;-49
2022/07/04 04:43:06;;;;;;;;;;;16.90;99.90;;;;;;5015930;28;20959;-51
2022/07/04 04:45:33;;;;;;;4.35;2.83;;;16.90;99.90;;;;;;5015525;28;19925;-49
2022/07/04 04:47:59;;;;;;;2.90;2.47;;;16.90;99.90;;;;;;5014146;28;20068;-49
2022/07/04 04:50:26;;;;;;;3.35;2.55;;;17.00;99.90;;;;;;5015691;28;20042;-52
2022/07/04 04:52:53;;;;;;;2.97;2.67;;;17.00;99.90;;;;;;5015108;28;21075;-53
2022/07/04 04:55:20;;;;;;;4.25;2.85;;;17.00;99.90;;;;;;5015413;28;20049;-48
2022/07/04 04:57:47;;;;;;;;;;;17.00;99.90;;;;;;5016082;28;20111;-50
2022/07/04 05:00:14;;;;;;;8.13;3.22;;;17.10;99.90;;;;;;5015473;28;19928;-51
2022/07/04 05:02:40;;;;;;;4.85;3.05;;;17.00;99.90;;;;;;5014666;28;20506;-51
2022/07/04 05:05:08;;;;;;;10.45;4.00;;;17.10;99.90;;;;;;5015228;28;20044;-49
2022/07/04 05:07:35;;;;;;;9.13;3.22;;;17.00;99.90;;;;;;5015608;28;20041;-51
2022/07/04 05:10:03;;;;;;;5.65;3.08;;;17.00;99.90;;;;;;5013193;28;20071;-51
2022/07/04 05:12:30;;;;;;;3.42;2.88;;;17.00;99.90;;;;;;5013853;28;20045;-50
2022/07/04 05:15:00;;;;;;;6.30;3.30;;;17.00;99.90;;;;;;5013602;28;20132;-58
2022/07/04 05:17:27;;;;;;;6.93;3.13;;;17.00;99.90;;;;;;5014300;28;20041;-53
2022/07/04 05:19:53;;;;;;;;;;;17.00;99.90;;;;;;5015127;28;20090;-52
2022/07/04 05:22:21;;;;;;;8.98;3.67;;;16.90;99.90;;;;;;5015188;28;19924;-55
2022/07/04 05:24:47;;;;;;;3.33;2.80;;;16.90;99.90;;;;;;5014964;28;20143;-55
2022/07/04 05:27:15;;;;;;;4.53;2.90;;;16.80;99.90;;;;;;5014673;28;20132;-55
2022/07/04 05:29:42;;;;;;;3.67;2.85;;;16.80;99.90;;;;;;5014041;28;20041;-53
2022/07/04 05:32:08;;;;;;;;;;;16.80;99.90;;;;;;5015704;28;20076;-53
2022/07/04 05:34:35;;;;;;;5.82;2.58;;;16.80;99.90;;;;;;5014891;28;20596;-51
2022/07/04 05:37:04;;;;;;;6.78;3.03;;;16.80;99.90;;;;;;5014548;28;20054;-53
2022/07/04 05:39:31;;;;;;;3.63;2.80;;;16.80;99.90;;;;;;5014694;28;20097;-53
2022/07/04 05:41:57;;;;;;;4.63;2.97;;;16.80;99.90;;;;;;5014411;28;20057;-53
2022/07/04 05:44:24;;;;;;;6.13;3.10;;;16.80;99.90;;;;;;5014536;28;20107;-54
2022/07/04 05:46:51;;;;;;;5.28;3.47;;;16.80;99.90;;;;;;5014761;28;20052;-53
2022/07/04 05:49:18;;;;;;;;;;;16.90;99.90;;;;;;4997026;28;20049;-55
2022/07/04 05:51:45;;;;;;;2.83;2.63;;;16.80;99.90;;;;;;5014420;28;20155;-54
2022/07/04 05:54:11;;;;;;;5.25;3.42;;;16.80;99.90;;;;;;5013701;28;20041;-55
2022/07/04 05:56:39;;;;;;;;;;;16.80;99.90;;;;;;5014178;28;20127;-54
2022/07/04 05:59:06;;;;;;;5.03;3.28;;;16.80;99.90;;;;;;5014401;28;19925;-51
2022/07/04 06:01:33;;;;;;;2.85;2.65;;;16.80;99.90;;;;;;5013157;28;20476;-54
2022/07/04 06:04:00;;;;;;;2.83;2.38;;;16.70;99.90;;;;;;5014254;28;20116;-49
2022/07/04 06:06:27;;;;;;;8.55;2.70;;;16.80;99.90;;;;;;5013158;28;20947;-53
2022/07/04 06:08:54;;;;;;;2.40;2.10;;;16.70;99.90;;;;;;5012509;28;20502;-53
2022/07/04 06:11:21;;;;;;;4.40;2.60;;;16.70;99.90;;;;;;5011267;28;20046;-53
2022/07/04 06:13:49;;;;;;;4.85;2.50;;;16.70;99.90;;;;;;5009834;28;20045;-52
2022/07/04 06:16:17;;;;;;;3.45;2.47;;;16.70;99.90;;;;;;5014894;28;20137;-54
2022/07/04 06:18:44;;;;;;;5.55;2.42;;;16.70;99.90;;;;;;5014297;28;20125;-52
2022/07/04 06:21:10;;;;;;;;;;;16.70;99.90;;;;;;5013389;28;20148;-53
2022/07/04 06:23:37;;;;;;;3.42;2.72;;;16.70;99.90;;;;;;5013808;28;20342;-54
2022/07/04 06:26:04;;;;;;;3.53;2.42;;;16.70;99.90;;;;;;5013463;28;20081;-54
2022/07/04 06:28:31;;;;;;;4.00;2.47;;;16.70;99.90;;;;;;5015344;28;20046;-53
2022/07/04 06:31:15;;;;;;;3.70;2.17;;;16.80;99.90;;;;;;5016385;28;20563;-51
2022/07/04 06:36:28;;;;;;;4.82;2.90;;;16.90;99.90;;;;;;5018625;28;20048;-56
2022/07/04 06:38:55;;;;;;;4.28;2.83;;;16.90;99.90;;;;;;4999756;28;20166;-53
2022/07/04 06:41:22;;;;;;;2.30;2.10;;;17.00;99.90;;;;;;5017788;28;20052;-53
2022/07/04 06:43:49;;;;;;;3.53;2.83;;;17.00;99.90;;;;;;5017875;28;20546;-52
2022/07/04 06:46:16;;;;;;;2.55;2.22;;;17.10;99.90;;;;;;5017854;28;20096;-54
2022/07/04 06:48:43;;;;;;;3.38;2.72;;;17.20;99.90;;;;;;5017273;28;20053;-64
2022/07/04 06:51:11;;;;;;;4.45;2.47;;;17.30;99.90;;;;;;5018182;28;20041;-52
2022/07/04 06:53:38;;;;;;;4.88;2.05;;;17.30;99.90;;;;;;5017420;28;20103;-62
2022/07/04 06:56:04;;;;;;;;;;;17.40;99.90;;;;;;5018988;28;20046;-51
2022/07/04 06:58:31;;;;;;;8.75;3.30;;;17.50;99.90;;;;;;5017194;28;19921;-54
2022/07/04 07:00:58;;;;;;;3.08;2.40;;;17.60;99.90;;;;;;5017995;28;20826;-51
2022/07/04 07:03:27;;;;;;;2.10;1.98;;;17.60;99.90;;;;;;5017190;28;20810;-49
2022/07/04 07:05:54;;;;;;;3.10;1.90;;;17.70;99.90;;;;;;5016807;28;20456;-51
2022/07/04 07:08:27;;;;;;;2.50;1.90;;;17.80;99.90;;;;;;5017573;28;20068;-51
2022/07/04 07:10:55;;;;;;;5.82;2.67;;;17.90;99.90;;;;;;5014543;28;20042;-49
2022/07/04 07:13:22;;;;;;;6.38;2.00;;;17.90;99.90;;;;;;5007513;28;20696;-49
2022/07/04 07:15:49;;;;;;;2.50;1.63;;;18.00;99.90;;;;;;5015578;28;20069;-53
2022/07/04 07:18:16;;;;;;;5.85;2.50;;;18.00;99.90;;;;;;5017630;28;20108;-52
2022/07/04 07:20:43;;;;;;;6.72;2.05;;;18.00;99.90;;;;;;5017500;28;20071;-49
2022/07/04 07:23:10;;;;;;;4.93;2.50;;;18.00;99.90;;;;;;5018249;28;20057;-49
2022/07/04 07:25:37;;;;;;;5.18;1.90;;;18.00;99.90;;;;;;5018330;28;20076;-52
2022/07/04 07:28:04;;;;;;;2.53;2.15;;;18.00;99.90;;;;;;5016525;28;20038;-50
2022/07/04 07:30:31;;;;;;;4.30;2.05;;;18.10;99.90;;;;;;5017300;28;20045;-56
2022/07/04 07:32:58;;;;;;;6.25;2.60;;;18.20;99.90;;;;;;5017313;28;20056;-52
2022/07/04 07:35:25;;;;;;;3.60;2.70;;;18.30;99.90;;;;;;5017505;28;20041;-52
2022/07/04 07:37:52;;;;;;;4.65;2.90;;;18.40;99.90;;;;;;5016791;28;20045;-54
2022/07/04 07:40:19;;;;;;;2.83;2.40;;;18.50;99.90;;;;;;5015812;28;20049;-52
2022/07/04 07:42:46;;;;;;;4.70;2.47;;;18.60;99.90;;;;;;5016008;28;20057;-54
2022/07/04 07:45:12;;;;;;;6.22;4.20;;;18.70;99.90;;;;;;5016880;28;20120;-54
2022/07/04 07:47:39;;;;;;;3.83;2.95;;;18.80;99.90;;;;;;5019079;28;20036;-54
2022/07/04 07:50:06;;;;;;;5.85;2.40;;;18.90;99.90;;;;;;5036766;28;20510;-54
2022/07/04 07:52:33;;;;;;;2.83;2.30;;;19.00;99.90;;;;;;5036505;28;20087;-54
2022/07/04 07:55:00;;;;;;;3.03;2.53;;;19.00;99.90;;;;;;5035873;28;20049;-52
2022/07/04 07:57:28;;;;;;;6.47;2.70;;;19.10;99.90;;;;;;5037161;28;20059;-54
2022/07/04 07:59:56;;;;;;;2.90;2.38;;;19.20;99.90;;;;;;5035802;28;20044;-52
2022/07/04 08:04:34;;;;;;;3.78;2.17;;;19.30;99.90;;;;;;5036194;28;20045;-54
2022/07/04 08:05:11;;;;;;;3.13;2.13;;;19.30;99.90;;;;;;5036155;28;20036;-51
2022/07/04 08:07:39;;;;;;;4.22;2.13;;;19.40;99.90;;;;;;5035342;28;20049;-52
2022/07/04 08:10:08;;;;;;;2.72;2.38;;;19.40;99.90;;;;;;5035877;28;20049;-48
2022/07/04 08:12:35;;;;;;;3.33;2.40;;;19.50;99.90;;;;;;5035755;28;20040;-50
2022/07/04 08:15:03;;;;;;;4.18;2.00;;;19.50;99.90;;;;;;5013953;28;20037;-52
2022/07/04 08:17:34;;;;;;;4.75;2.75;;;19.50;99.90;;;;;;5016729;28;20034;-49
2022/07/04 08:20:03;;;;;;;3.17;2.28;;;19.50;99.90;;;;;;5016266;28;20532;-50
2022/07/04 08:22:30;;;;;;;5.03;2.17;;;19.50;99.90;;;;;;5016207;28;20137;-51
2022/07/04 08:24:57;;;;;;;3.17;2.42;;;19.50;99.90;;;;;;5015016;28;20050;-50
2022/07/04 08:27:24;;;;;;;4.85;2.75;;;19.60;99.90;;;;;;5015187;28;20597;-49
2022/07/04 08:29:59;;;;;;;4.30;2.80;;;19.70;99.90;;;;;;5014728;28;20049;-48
2022/07/04 08:32:26;;;;;;;6.18;3.20;;;19.70;99.90;;;;;;5014549;28;20041;-47
2022/07/04 08:34:54;;;;;;;3.72;3.25;;;19.70;99.90;;;;;;5016010;28;20080;-51
2022/07/04 08:37:21;;;;;;;5.28;3.22;;;19.70;99.90;;;;;;5016007;28;20053;-49
2022/07/04 08:39:48;;;;;;;5.47;3.15;;;19.80;99.90;;;;;;5014492;28;20041;-50
2022/07/04 08:42:20;;;;;;;6.20;3.78;;;19.90;99.90;;;;;;5004801;28;20495;-54
2022/07/04 08:44:51;;;;;;;7.97;4.00;;;20.00;99.90;;;;;;4995688;28;20044;-54
2022/07/04 08:47:23;;;;;;;3.67;3.13;;;20.10;99.90;;;;;;4997088;28;20660;-52
2022/07/04 08:50:05;;;;;;;6.97;3.20;;;20.20;99.90;;;;;;4994732;28;20087;-54
2022/07/04 08:52:37;;;;;;;11.07;3.55;;;20.30;99.90;;;;;;4996447;28;20702;-52
2022/07/04 09:00:39;;;;;;;5.25;3.85;;;20.40;99.90;;;;;;4993552;28;20069;-53
2022/07/04 09:03:06;;;;;;;4.15;3.45;;;20.40;99.90;;;;;;4994431;28;20074;-55
2022/07/04 09:05:34;;;;;;;3.97;2.88;;;20.30;99.90;;;;;;4995596;28;20041;-55
2022/07/04 09:08:02;;;;;;;6.18;3.63;;;20.30;99.90;;;;;;4996144;28;20462;-55
2022/07/04 09:10:30;;;;;;;7.75;4.60;;;20.30;99.90;;;;;;5010470;28;20132;-53
2022/07/04 09:12:57;;;;;;;3.92;3.08;;;20.30;99.90;;;;;;4995518;28;20049;-54
2022/07/04 09:15:38;;;;;;;5.35;3.95;;;20.30;99.90;;;;;;5010612;28;20127;-51
2022/07/04 09:18:05;;;;;;;6.85;4.18;;;20.40;99.90;;;;;;5015378;28;20041;-54
2022/07/04 09:20:33;;;;;;;5.05;3.72;;;20.40;99.90;;;;;;5014831;28;20124;-53
2022/07/04 09:23:00;;;;;;;6.15;4.22;;;20.40;99.90;;;;;;5014381;28;20056;-54
2022/07/04 09:25:27;;;;;;;4.75;4.00;;;20.40;99.90;;;;;;5015963;28;20752;-53
2022/07/04 09:27:56;;;;;;;5.95;4.53;;;20.60;99.90;;;;;;5021681;28;20056;-54
2022/07/04 09:30:25;;;;;;;4.85;3.13;;;20.80;99.90;;;;;;5014820;28;20049;-51
2022/07/04 09:33:00;;;;;;;7.82;3.30;;;20.90;99.90;;;;;;5014482;28;20041;-54
2022/07/04 09:35:29;;;;;;;4.88;2.78;;;21.00;99.90;;;;;;5013746;28;20049;-53
2022/07/04 09:38:02;;;;;;;3.28;2.95;;;21.00;99.90;;;;;;5014846;28;20809;-53
2022/07/04 09:43:33;;;;;;;3.38;2.75;;;21.10;99.90;;;;;;5004717;28;20799;-54
2022/07/04 09:46:01;;;;;;;6.82;2.70;;;21.20;99.90;;;;;;5015166;28;20123;-54
2022/07/04 09:48:50;;;;;;;5.97;2.95;;;21.30;99.90;;;;;;5015792;28;20049;-54
2022/07/04 09:51:43;;;;;;;4.55;3.08;;;21.40;99.90;;;;;;5014980;28;20198;-53
2022/07/04 09:54:20;;;;;;;6.82;3.20;;;21.60;99.90;;;;;;5014245;28;20045;-52
2022/07/04 09:56:48;;;;;;;;;;;21.80;99.90;;;;;;5015653;28;20044;-55
2022/07/04 09:59:15;;;;;;;;;;;22.00;99.90;;;;;;5013719;28;19975;-55
2022/07/04 10:01:42;;;;;;;8.57;3.87;;;22.30;99.90;;;;;;5014050;28;20380;-54
2022/07/04 10:04:11;;;;;;;3.75;3.10;;;22.50;99.90;;;;;;5014450;28;20052;-55
2022/07/04 10:06:40;;;;;;;5.47;2.85;;;22.90;99.90;;;;;;5012819;28;20041;-53
2022/07/04 10:09:10;;;;;;;3.75;2.38;;;23.20;99.90;;;;;;5014745;28;20049;-54
2022/07/04 10:11:39;;;;;;;4.72;2.58;;;23.40;99.90;;;;;;5013817;28;20030;-53
2022/07/04 10:14:08;;;;;;;5.85;3.03;;;23.80;99.90;;;;;;5014035;28;20577;-54
2022/07/04 10:16:36;;;;;;;4.05;2.63;;;24.20;99.90;;;;;;5011671;28;20033;-53
2022/07/04 10:19:04;;;;;;;6.65;2.53;;;24.70;99.90;;;;;;5013521;28;20045;-53
2022/07/04 10:21:32;;;;;;;4.60;2.60;;;25.10;99.90;;;;;;5013768;28;20037;-57
2022/07/04 10:24:00;;;;;;;2.90;1.98;;;25.40;99.90;;;;;;5012132;28;20481;-56
2022/07/04 10:26:29;;;;;;;3.55;1.60;;;25.70;99.90;;;;;;5013174;28;20045;-54
2022/07/04 10:28:56;;;;;;;2.63;1.70;;;26.00;99.90;;;;;;5012787;28;20060;-54
2022/07/04 10:31:25;;;;;;;3.17;1.67;;;26.10;99.90;;;;;;5014052;28;20358;-56
2022/07/04 10:33:54;;;;;;;2.20;1.55;;;26.10;98.80;;;;;;5012682;28;20143;-54
2022/07/04 10:36:23;;;;;;;3.60;1.98;;;26.20;99.90;;;;;;5011702;28;20056;-51
2022/07/04 10:38:55;;;;;;;2.90;1.77;;;26.30;99.90;;;;;;5012582;28;20037;-54
2022/07/04 10:41:23;;;;;;;2.63;1.67;;;26.40;99.90;;;;;;5012306;28;20061;-54
2022/07/04 10:44:06;;;;;;;2.90;1.90;;;26.20;99.40;;;;;;5010660;28;20064;-54
2022/07/04 10:46:42;;;;;;;4.78;1.83;;;26.10;99.90;;;;;;5014266;28;20121;-56
2022/07/04 10:49:15;;;;;;;2.13;1.50;;;26.20;99.90;;;;;;5011347;28;20042;-54
2022/07/04 10:51:48;;;;;;;5.55;1.52;;;26.50;96.20;;;;;;5013786;28;20444;-53
2022/07/04 10:54:31;;;;;;;1.52;1.15;;;26.60;92.10;;;;;;5013319;28;20069;-56
2022/07/04 10:57:13;;;;;;;1.45;1.35;;;26.80;91.40;;;;;;5013689;28;20462;-54
2022/07/04 11:00:03;;;;;;;3.28;1.20;;;26.90;87.70;;;;;;5013738;28;20049;-54
2022/07/04 11:02:32;;;;;;;1.52;1.20;;;27.00;83.20;;;;;;5011791;28;20575;-58
2022/07/04 11:05:09;;;;;;;1.33;1.13;;;26.90;82.60;;;;;;5011690;28;20049;-50
2022/07/04 11:07:36;;;;;;;1.77;1.30;;;26.70;81.50;;;;;;5013103;28;20045;-53
2022/07/04 11:10:13;;;;;;;6.40;1.45;;;26.60;84.50;;;;;;5011765;28;20046;-55
2022/07/04 11:13:02;;;;;;;5.13;1.33;;;26.50;90.80;;;;;;5010884;28;20065;-55
2022/07/04 11:15:32;;;;;;;1.38;1.13;;;26.50;94.50;;;;;;5017153;28;20053;-53
2022/07/04 11:18:02;;;;;;;1.30;1.20;;;26.60;85.10;;;;;;5009297;28;20476;-54
2022/07/04 11:20:31;;;;;;;1.92;1.27;;;26.70;88.40;;;;;;5017049;28;20160;-54
2022/07/04 11:23:09;;;;;;;1.35;1.23;;;26.90;94.80;;;;;;5016662;28;20041;-53
2022/07/04 11:25:37;;;;;;;3.92;1.40;;;27.00;96.00;;;;;;5016837;28;20270;-55
2022/07/04 11:28:23;;;;;;;2.05;1.55;;;27.10;96.00;;;;;;5015914;28;20099;-54
2022/07/04 11:31:10;;;;;;;4.30;1.42;;;27.20;91.30;;;;;;5016079;28;20412;-51
2022/07/04 11:33:40;;;;;;;1.70;1.38;;;27.20;96.20;;;;;;5014423;28;20164;-54
2022/07/04 11:36:20;;;;;;;3.10;1.52;;;27.20;99.50;;;;;;5015094;28;20081;-54
2022/07/04 11:38:54;;;;;;;2.97;1.75;;;27.20;99.90;;;;;;5016616;28;20512;-52
2022/07/04 11:47:39;;;;;;;6.18;1.75;;;27.00;99.90;;;;;;5016916;28;20046;-52
2022/07/04 11:50:06;;;;;;;2.53;1.60;;;26.90;99.90;;;;;;5016461;28;20045;-55
2022/07/04 11:52:43;;;;;;;3.70;2.20;;;26.70;99.90;;;;;;5015952;28;20049;-55
2022/07/04 11:55:30;;;;;;;3.03;2.20;;;26.70;99.90;;;;;;5016232;28;20079;-53
2022/07/04 11:57:57;;;;;;;3.40;2.13;;;26.50;99.90;;;;;;5016810;28;20048;-54
2022/07/04 12:00:34;;;;;;;3.67;2.17;;;26.40;99.90;;;;;;5016258;28;20103;-55
2022/07/04 12:03:01;;;;;;;4.45;2.38;;;26.40;99.90;;;;;;5016439;28;20141;-54
2022/07/04 12:05:29;;;;;;;3.72;1.67;;;26.40;99.90;;;;;;5016760;28;20056;-54
2022/07/04 12:07:56;;;;;;;5.90;2.47;;;26.30;99.90;;;;;;5016125;28;20335;-52
2022/07/04 12:10:43;;;;;;;6.97;2.05;;;26.20;99.90;;;;;;5014978;28;20664;-54
2022/07/04 12:13:16;;;;;;;5.25;2.38;;;26.00;99.90;;;;;;5014486;28;20033;-54
2022/07/04 12:15:47;;;;;;;2.15;1.70;;;25.80;99.90;;;;;;5016512;28;20099;-54
2022/07/04 12:18:19;;;;;;;4.65;2.17;;;25.80;99.90;;;;;;5013919;28;20059;-52
2022/07/04 12:20:48;;;;;;;4.30;2.00;;;25.80;99.90;;;;;;5015628;28;20124;-54
2022/07/04 12:23:15;;;;;;;2.38;2.03;;;25.80;99.90;;;;;;5015881;28;20045;-51
2022/07/04 12:25:48;;;;;;;2.53;2.15;;;25.90;99.90;;;;;;5014721;28;20048;-55
2022/07/04 12:28:17;;;;;;;7.30;2.58;;;26.10;99.90;;;;;;5014375;28;20467;-53
2022/07/04 12:30:58;;;;;;;2.80;1.90;;;26.40;99.90;;;;;;5016225;28;20117;-54
2022/07/04 12:33:27;;;;;;;3.55;2.22;;;26.50;99.90;;;;;;5015871;28;20130;-53
2022/07/04 12:36:05;;;;;;;4.30;2.35;;;26.40;99.90;;;;;;5014869;28;20096;-52
2022/07/04 12:38:41;;;;;;;5.63;2.85;;;26.40;99.90;;;;;;5016177;28;20071;-54
2022/07/04 12:41:13;;;;;;;5.25;3.20;;;26.50;99.90;;;;;;5015768;28;20568;-55
2022/07/04 12:43:40;;;;;;;3.83;2.95;;;26.70;99.90;;;;;;5008726;28;20056;-54
2022/07/04 12:46:08;;;;;;;4.25;2.72;;;26.90;99.90;;;;;;5015224;28;20038;-53
2022/07/04 12:48:36;;;;;;;9.38;2.72;;;27.20;99.90;;;;;;5015665;28;20529;-54
2022/07/04 12:51:27;;;;;;;5.57;1.90;;;27.30;99.90;;;;;;5015911;28;20052;-53
2022/07/04 12:53:56;;;;;;;2.15;1.83;;;27.20;99.90;;;;;;5015456;28;20542;-54
2022/07/04 12:56:32;;;;;;;6.53;2.38;;;27.20;99.90;;;;;;5015009;28;20054;-51
2022/07/04 12:59:04;;;;;;;4.28;2.38;;;27.10;99.90;;;;;;5015715;28;20262;-52
2022/07/04 13:01:39;;;;;;;2.78;2.00;;;27.30;99.90;;;;;;5015236;28;20049;-52
2022/07/04 13:04:06;;;;;;;5.43;2.10;;;27.40;99.90;;;;;;5015556;28;20651;-55
2022/07/04 13:06:33;;;;;;;5.38;2.28;;;27.60;99.90;;;;;;5015508;28;20053;-54
2022/07/04 13:09:03;;;;;;;2.67;2.08;;;27.80;99.90;;;;;;5014918;28;20041;-55
2022/07/04 13:14:15;;;;;;;6.97;2.33;;;28.20;99.90;;;;;;5014397;28;20050;-52
2022/07/04 13:16:41;;;;;;;2.25;1.63;;;28.40;99.40;;;;;;5015389;28;20045;-55
2022/07/04 13:19:08;;;;;;;1.70;1.60;;;28.50;96.30;;;;;;5010709;28;20491;-55
2022/07/04 13:21:36;;;;;;;2.38;1.60;;;28.40;97.50;;;;;;5014754;28;20052;-53
2022/07/04 13:24:03;;;;;;;2.53;2.00;;;28.20;96.20;;;;;;5013155;28;20813;-56
2022/07/04 13:26:32;;;;;;;5.65;3.33;;;28.00;97.50;;;;;;5015293;28;20061;-62